createdAt,value
2018-07-13T00:02:16.189Z,56.40
2018-07-13T00:04:49.109Z,56.60
2018-07-13T00:07:20.548Z,56.60
2018-07-13T00:09:53.148Z,56.70
2018-07-13T00:12:25.250Z,56.80
2018-07-13T00:15:13.428Z,56.80
2018-07-13T00:17:45.248Z,56.80
2018-07-13T00:20:16.808Z,57.10
2018-07-13T00:22:48.928Z,57.10
2018-07-13T00:25:20.848Z,57.20
2018-07-13T00:27:52.988Z,57.10
2018-07-13T00:30:25.648Z,57.40
2018-07-13T00:32:57.268Z,57.50
2018-07-13T00:35:28.968Z,57.60
2018-07-13T00:38:01.109Z,57.60
2018-07-13T00:40:33.368Z,57.20
2018-07-13T00:43:05.388Z,57.70
2018-07-13T00:45:37.328Z,57.70
2018-07-13T00:48:07.508Z,57.00
2018-07-13T00:50:39.190Z,56.90
2018-07-13T00:53:11.408Z,57.00
2018-07-13T00:55:44.748Z,56.80
2018-07-13T00:58:16.089Z,57.10
2018-07-13T01:00:48.356Z,57.00
2018-07-13T01:03:19.849Z,57.00
2018-07-13T01:05:52.509Z,57.30
2018-07-13T01:08:24.809Z,56.80
2018-07-13T01:10:57.109Z,56.70
2018-07-13T01:13:29.708Z,56.50
2018-07-13T01:16:01.452Z,56.80
2018-07-13T01:18:33.429Z,56.70
2018-07-13T01:21:06.148Z,56.50
2018-07-13T01:23:37.808Z,56.80
2018-07-13T01:26:10.027Z,57.00
2018-07-13T01:28:41.448Z,57.20
2018-07-13T01:31:12.971Z,57.50
2018-07-13T01:33:45.029Z,57.60
2018-07-13T01:36:17.948Z,57.60
2018-07-13T01:38:49.888Z,57.40
2018-07-13T01:41:22.308Z,57.30
2018-07-13T01:43:55.047Z,57.50
2018-07-13T01:46:27.188Z,57.80
2018-07-13T01:48:59.027Z,57.80
2018-07-13T01:51:31.028Z,57.80
2018-07-13T01:54:03.028Z,57.70
2018-07-13T01:56:35.248Z,57.50
2018-07-13T01:59:06.888Z,57.30
2018-07-13T02:01:39.028Z,57.50
2018-07-13T02:04:11.269Z,57.50
2018-07-13T02:06:43.048Z,57.70
2018-07-13T02:09:14.867Z,57.50
2018-07-13T02:11:47.027Z,57.70
2018-07-13T02:14:18.228Z,57.70
2018-07-13T02:16:50.507Z,58.00
2018-07-13T02:19:22.628Z,57.80
2018-07-13T02:21:54.708Z,58.00
2018-07-13T02:24:26.348Z,57.90
2018-07-13T02:26:58.287Z,57.80
2018-07-13T02:29:30.728Z,57.70
2018-07-13T02:32:02.528Z,57.80
2018-07-13T02:34:34.009Z,57.80
2018-07-13T02:37:05.888Z,57.60
2018-07-13T02:39:37.888Z,57.80
2018-07-13T02:42:09.490Z,57.60
2018-07-13T02:44:40.790Z,57.70
2018-07-13T02:47:12.228Z,57.70
2018-07-13T02:49:44.008Z,58.00
2018-07-13T02:52:15.450Z,58.00
2018-07-13T02:54:47.689Z,58.10
2018-07-13T02:57:19.609Z,58.30
2018-07-13T02:59:51.632Z,58.40
2018-07-13T03:02:23.508Z,58.40
2018-07-13T03:04:55.908Z,58.70
2018-07-13T03:07:28.030Z,58.60
2018-07-13T03:10:00.350Z,58.50
2018-07-13T03:12:32.813Z,58.70
2018-07-13T03:15:04.809Z,58.70
2018-07-13T03:17:36.890Z,59.00
2018-07-13T03:20:08.848Z,58.90
2018-07-13T03:22:41.428Z,58.90
2018-07-13T03:25:13.608Z,59.10
2018-07-13T03:27:45.549Z,59.20
2018-07-13T03:30:17.589Z,59.30
2018-07-13T03:32:49.968Z,59.40
2018-07-13T03:35:22.068Z,59.50
2018-07-13T03:37:54.608Z,59.40
2018-07-13T03:40:26.289Z,59.40
2018-07-13T03:42:58.568Z,59.50
2018-07-13T03:45:30.608Z,59.90
2018-07-13T03:48:02.709Z,60.00
2018-07-13T03:50:35.248Z,60.20
2018-07-13T03:53:07.748Z,60.00
2018-07-13T03:55:39.989Z,59.90
2018-07-13T03:58:12.348Z,60.10
2018-07-13T04:00:43.890Z,60.20
2018-07-13T04:03:15.888Z,60.30
2018-07-13T04:05:47.829Z,60.10
2018-07-13T04:08:19.988Z,60.20
2018-07-13T04:10:51.709Z,60.20
2018-07-13T04:13:23.990Z,60.30
2018-07-13T04:15:56.568Z,60.60
2018-07-13T04:18:28.308Z,60.40
2018-07-13T04:21:00.568Z,60.20
2018-07-13T04:23:33.049Z,60.00
2018-07-13T04:26:04.728Z,60.10
2018-07-13T04:28:37.194Z,60.30
2018-07-13T04:33:39.048Z,60.30
2018-07-13T04:36:10.909Z,60.40
2018-07-13T04:38:41.948Z,60.30
2018-07-13T04:41:15.108Z,60.40
2018-07-13T04:43:47.748Z,60.30
2018-07-13T04:46:19.488Z,60.40
2018-07-13T04:48:51.907Z,60.40
2018-07-13T04:51:23.532Z,60.40
2018-07-13T04:53:55.891Z,60.50
2018-07-13T04:56:28.889Z,60.60
2018-07-13T04:59:00.368Z,60.10
2018-07-13T05:01:32.548Z,60.30
2018-07-13T05:04:04.288Z,60.60
2018-07-13T05:06:37.248Z,60.40
2018-07-13T05:09:10.368Z,60.40
2018-07-13T05:11:42.288Z,60.50
2018-07-13T05:14:14.231Z,60.60
2018-07-13T05:16:46.928Z,60.40
2018-07-13T05:19:18.228Z,60.50
2018-07-13T05:21:51.187Z,60.10
2018-07-13T05:24:23.147Z,59.70
2018-07-13T05:26:56.068Z,59.40
2018-07-13T05:29:27.668Z,59.00
2018-07-13T05:31:59.728Z,58.80
2018-07-13T05:34:31.748Z,58.80
2018-07-13T05:37:03.689Z,58.90
2018-07-13T05:39:35.588Z,58.70
2018-07-13T05:42:07.408Z,58.60
2018-07-13T05:44:40.148Z,58.60
2018-07-13T05:47:12.809Z,57.90
2018-07-13T05:49:44.701Z,57.10
2018-07-13T05:52:17.028Z,56.70
2018-07-13T05:54:49.288Z,56.80
2018-07-13T05:57:21.229Z,57.60
2018-07-13T05:59:52.956Z,57.60
2018-07-13T06:02:25.136Z,58.30
2018-07-13T06:04:57.109Z,59.70
2018-07-13T06:07:29.608Z,60.40
2018-07-13T06:10:01.473Z,60.40
2018-07-13T06:12:34.049Z,60.70
2018-07-13T06:15:06.611Z,61.00
2018-07-13T06:17:38.990Z,60.80
2018-07-13T06:20:12.189Z,60.80
2018-07-13T06:22:44.309Z,60.20
2018-07-13T06:25:16.529Z,60.40
2018-07-13T06:27:48.429Z,60.10
2018-07-13T06:30:21.201Z,59.40
2018-07-13T06:32:52.970Z,59.20
2018-07-13T06:35:25.293Z,59.20
2018-07-13T06:37:57.549Z,58.90
2018-07-13T06:40:30.310Z,57.90
2018-07-13T06:43:02.157Z,56.60
2018-07-13T06:45:37.329Z,57.70
2018-07-13T06:48:07.589Z,57.00
2018-07-13T06:50:39.871Z,57.00
2018-07-13T06:53:12.989Z,55.50
2018-07-13T06:55:45.069Z,55.00
2018-07-13T06:59:21.157Z,54.30
2018-07-13T07:01:53.468Z,54.30
2018-07-13T07:04:34.168Z,52.10
2018-07-13T07:07:07.669Z,51.90
2018-07-13T07:09:39.612Z,51.90
2018-07-13T07:13:31.923Z,51.70
2018-07-13T07:16:03.465Z,51.80
2018-07-13T07:18:36.824Z,50.40
2018-07-13T07:21:09.645Z,50.30
2018-07-13T07:23:41.579Z,50.00
2018-07-13T07:26:14.037Z,49.80
2018-07-13T07:28:46.877Z,50.20
2018-07-13T07:31:18.316Z,49.00
2018-07-13T07:33:49.816Z,49.10
2018-07-13T07:36:22.084Z,49.20
2018-07-13T07:38:54.138Z,48.70
2018-07-13T07:41:26.176Z,49.30
2018-07-13T07:43:58.102Z,49.10
2018-07-13T07:46:29.656Z,49.80
2018-07-13T07:49:01.096Z,49.10
2018-07-13T07:51:33.451Z,48.80
2018-07-13T07:54:05.572Z,48.30
2018-07-13T07:56:38.491Z,48.00
2018-07-13T07:59:10.152Z,48.50
2018-07-13T08:01:43.635Z,48.00
2018-07-13T08:04:15.526Z,47.40
2018-07-13T08:06:48.083Z,47.80
2018-07-13T08:09:20.026Z,48.30
2018-07-13T08:11:52.482Z,47.70
2018-07-13T08:14:24.429Z,47.70
2018-07-13T08:16:57.076Z,48.50
2018-07-13T08:19:29.985Z,47.70
2018-07-13T08:22:04.654Z,47.60
2018-07-13T08:24:37.451Z,46.80
2018-07-13T08:27:09.272Z,47.10
2018-07-13T08:29:43.510Z,47.40
2018-07-13T08:32:15.571Z,47.70
2018-07-13T08:34:48.072Z,47.90
2018-07-13T08:37:19.590Z,47.50
2018-07-13T08:39:51.990Z,47.40
2018-07-13T08:42:23.629Z,47.70
2018-07-13T08:44:55.571Z,47.00
2018-07-13T08:47:27.017Z,47.00
2018-07-13T08:49:58.567Z,47.50
2018-07-13T08:52:30.407Z,46.80
2018-07-13T08:55:07.387Z,47.30
2018-07-13T08:57:40.549Z,47.60
2018-07-13T09:00:12.828Z,48.10
2018-07-13T09:02:44.628Z,47.60
2018-07-13T09:05:15.848Z,48.10
2018-07-13T09:07:47.828Z,48.10
2018-07-13T09:10:20.202Z,48.70
2018-07-13T09:12:51.851Z,48.70
2018-07-13T09:15:23.701Z,48.10
2018-07-13T09:17:55.568Z,48.70
2018-07-13T09:20:27.796Z,48.90
2018-07-13T09:23:00.555Z,48.50
2018-07-13T09:25:31.977Z,48.20
2018-07-13T09:28:04.413Z,48.00
2018-07-13T09:30:35.674Z,47.90
2018-07-13T09:33:08.434Z,48.90
2018-07-13T09:35:40.134Z,48.80
2018-07-13T09:38:11.814Z,49.50
2018-07-13T09:40:43.663Z,48.50
2018-07-13T09:43:15.862Z,49.30
2018-07-13T09:45:47.742Z,48.90
2018-07-13T09:48:19.683Z,49.00
2018-07-13T09:50:51.042Z,49.30
2018-07-13T09:53:23.883Z,48.90
2018-07-13T09:55:55.686Z,48.00
2018-07-13T09:58:38.973Z,48.30
2018-07-13T10:01:15.366Z,48.40
2018-07-13T10:03:47.527Z,47.80
2018-07-13T10:06:19.286Z,47.40
2018-07-13T10:08:51.170Z,48.50
2018-07-13T10:11:23.097Z,47.40
2018-07-13T10:13:55.037Z,47.50
2018-07-13T10:16:26.956Z,47.10
2018-07-13T10:18:58.616Z,46.30
2018-07-13T10:21:31.712Z,47.10
2018-07-13T10:24:04.280Z,47.00
2018-07-13T10:26:37.520Z,47.30
2018-07-13T10:29:15.046Z,47.80
2018-07-13T10:31:47.042Z,48.20
2018-07-13T10:34:20.721Z,46.60
2018-07-13T10:36:55.923Z,47.20
2018-07-13T10:39:26.675Z,47.60
2018-07-13T10:41:58.625Z,47.20
2018-07-13T10:44:30.551Z,46.90
2018-07-13T10:47:02.381Z,45.50
2018-07-13T10:49:33.964Z,45.90
2018-07-13T10:52:05.881Z,45.40
2018-07-13T10:54:37.842Z,44.90
2018-07-13T10:57:09.748Z,45.90
2018-07-13T10:59:41.967Z,43.70
2018-07-13T11:02:13.885Z,44.80
2018-07-13T11:04:45.581Z,43.50
2018-07-13T11:07:17.316Z,43.40
2018-07-13T11:09:48.739Z,42.70
2018-07-13T11:12:20.358Z,42.70
2018-07-13T11:14:52.240Z,41.90
2018-07-13T11:17:24.493Z,42.10
2018-07-13T11:19:56.295Z,42.50
2018-07-13T11:22:28.209Z,42.90
2018-07-13T11:25:00.670Z,42.10
2018-07-13T11:27:31.962Z,42.00
2018-07-13T11:30:03.642Z,42.00
2018-07-13T11:32:36.186Z,42.00
2018-07-13T11:35:08.046Z,40.60
2018-07-13T11:37:39.687Z,40.30
2018-07-13T11:40:12.285Z,39.90
2018-07-13T11:42:43.725Z,40.40
2018-07-13T11:45:14.986Z,40.20
2018-07-13T11:47:47.305Z,39.80
2018-07-13T11:50:19.531Z,40.50
2018-07-13T11:52:51.301Z,41.30
2018-07-13T11:55:23.992Z,40.70
2018-07-13T11:57:55.218Z,41.40
2018-07-13T12:00:26.795Z,41.30
2018-07-13T12:02:58.609Z,42.10
2018-07-13T12:05:30.729Z,41.70
2018-07-13T12:08:02.029Z,41.80
2018-07-13T12:10:33.589Z,41.60
2018-07-13T12:13:05.270Z,40.10
2018-07-13T12:15:37.369Z,40.70
2018-07-13T12:18:07.789Z,39.80
2018-07-13T12:20:39.951Z,41.10
2018-07-13T12:23:11.741Z,41.40
2018-07-13T12:25:43.365Z,40.90
2018-07-13T12:28:15.084Z,40.70
2018-07-13T12:30:46.681Z,41.10
2018-07-13T12:33:18.771Z,40.70
2018-07-13T12:35:51.204Z,41.30
2018-07-13T12:38:22.961Z,41.40
2018-07-13T12:40:55.060Z,41.20
2018-07-13T12:43:26.897Z,41.70
2018-07-13T12:45:59.735Z,42.10
2018-07-13T12:48:31.199Z,42.10
2018-07-13T12:51:03.536Z,41.60
2018-07-13T12:53:36.036Z,42.40
2018-07-13T12:56:08.095Z,42.20
2018-07-13T12:58:41.656Z,42.60
2018-07-13T13:01:14.556Z,42.10
2018-07-13T13:03:46.472Z,41.90
2018-07-13T13:06:18.756Z,43.70
2018-07-13T13:08:50.996Z,42.50
2018-07-13T13:11:22.357Z,42.10
2018-07-13T13:13:55.277Z,39.30
2018-07-13T13:16:26.777Z,36.30
2018-07-13T13:18:58.756Z,33.40
2018-07-13T13:21:30.918Z,33.90
2018-07-13T13:24:03.436Z,32.60
2018-07-13T13:26:35.559Z,29.30
2018-07-13T13:29:07.047Z,32.10
2018-07-13T13:31:39.396Z,35.80
2018-07-13T13:34:11.655Z,34.50
2018-07-13T13:36:44.955Z,33.50
2018-07-13T13:39:17.456Z,32.90
2018-07-13T13:41:49.375Z,31.40
2018-07-13T13:44:21.276Z,30.30
2018-07-13T13:46:52.495Z,31.90
2018-07-13T13:49:24.637Z,32.20
2018-07-13T13:51:57.469Z,29.50
2018-07-13T13:54:30.489Z,31.90
2018-07-13T13:57:02.110Z,31.40
2018-07-13T13:59:33.829Z,29.80
2018-07-13T14:02:05.590Z,29.60
2018-07-13T14:04:38.602Z,28.70
2018-07-13T14:07:10.560Z,27.70
2018-07-13T14:09:42.579Z,26.10
2018-07-13T14:12:14.221Z,26.70
2018-07-13T14:14:45.803Z,24.30
2018-07-13T14:17:17.423Z,25.30
2018-07-13T14:19:50.459Z,27.50
2018-07-13T14:22:22.999Z,26.70
2018-07-13T14:24:54.643Z,26.40
2018-07-13T14:27:27.060Z,27.20
2018-07-13T14:29:59.556Z,27.40
2018-07-13T14:32:31.436Z,26.80
2018-07-13T14:35:03.169Z,28.90
2018-07-13T14:37:35.346Z,27.70
2018-07-13T14:40:06.530Z,28.00
2018-07-13T14:42:38.946Z,27.80
2018-07-13T14:45:09.533Z,27.60
2018-07-13T14:47:41.554Z,28.30
2018-07-13T14:50:13.173Z,28.90
2018-07-13T14:52:44.953Z,29.20
2018-07-13T14:55:17.473Z,29.10
2018-07-13T14:57:49.593Z,28.70
2018-07-13T15:00:21.273Z,27.90
2018-07-13T15:02:53.934Z,28.10
2018-07-13T15:05:25.503Z,28.90
2018-07-13T15:10:28.746Z,28.70
2018-07-13T15:13:02.012Z,27.30
2018-07-13T15:15:34.111Z,28.90
2018-07-13T15:18:05.841Z,29.50
2018-07-13T15:20:37.732Z,28.20
2018-07-13T15:23:09.971Z,28.00
2018-07-13T15:25:42.092Z,26.90
2018-07-13T15:28:12.692Z,27.30
2018-07-13T15:30:44.593Z,28.10
2018-07-13T15:33:16.651Z,28.00
2018-07-13T15:35:48.612Z,27.50
2018-07-13T15:38:21.011Z,27.10
2018-07-13T15:40:53.111Z,27.00
2018-07-13T15:43:25.198Z,26.50
2018-07-13T15:45:57.274Z,24.50
2018-07-13T15:48:29.652Z,24.50
2018-07-13T15:51:02.132Z,24.90
2018-07-13T15:53:33.870Z,23.60
2018-07-13T15:56:06.531Z,24.00
2018-07-13T15:58:38.370Z,24.70
2018-07-13T16:01:14.078Z,25.00
2018-07-13T16:03:46.272Z,25.80
2018-07-13T16:06:17.651Z,25.00
2018-07-13T16:08:49.345Z,24.50
2018-07-13T16:11:21.088Z,24.80
2018-07-13T16:13:52.283Z,25.10
2018-07-13T16:16:23.869Z,24.60
2018-07-13T16:18:55.594Z,24.70
2018-07-13T16:21:28.047Z,25.60
2018-07-13T16:23:59.346Z,25.50
2018-07-13T16:29:01.407Z,25.30
2018-07-13T16:31:33.547Z,25.50
2018-07-13T16:34:05.220Z,25.70
2018-07-13T16:36:36.467Z,25.50
2018-07-13T16:39:09.407Z,25.20
2018-07-13T16:41:41.273Z,25.50
2018-07-13T16:44:13.587Z,25.60
2018-07-13T16:46:45.807Z,25.90
2018-07-13T16:49:17.687Z,25.70
2018-07-13T16:51:49.895Z,26.60
2018-07-13T16:54:21.587Z,26.40
2018-07-13T16:56:53.007Z,26.70
2018-07-13T16:59:26.127Z,26.70
2018-07-13T17:01:57.668Z,27.10
2018-07-13T17:04:29.827Z,26.70
2018-07-13T17:07:02.410Z,26.80
2018-07-13T17:09:33.988Z,27.10
2018-07-13T17:12:06.909Z,26.90
2018-07-13T17:14:38.868Z,27.20
2018-07-13T17:17:10.695Z,26.90
2018-07-13T17:19:43.908Z,27.00
2018-07-13T17:22:15.291Z,26.90
2018-07-13T17:24:47.788Z,27.00
2018-07-13T17:27:19.928Z,26.90
2018-07-13T17:29:51.897Z,27.10
2018-07-13T17:32:23.511Z,27.50
2018-07-13T17:34:56.467Z,27.70
2018-07-13T17:37:27.747Z,27.80
2018-07-13T17:40:00.008Z,27.80
2018-07-13T17:42:31.880Z,27.70
2018-07-13T17:45:03.674Z,27.60
2018-07-13T17:47:35.588Z,28.50
2018-07-13T17:50:07.828Z,28.30
2018-07-13T17:52:40.051Z,28.30
2018-07-13T17:55:12.467Z,28.30
2018-07-13T17:57:43.968Z,28.30
2018-07-13T18:00:16.007Z,28.00
2018-07-13T18:02:48.687Z,28.40
2018-07-13T18:05:21.847Z,29.10
2018-07-13T18:07:53.447Z,28.60
2018-07-13T18:10:25.567Z,28.40
2018-07-13T18:12:57.033Z,28.30
2018-07-13T18:15:29.427Z,29.60
2018-07-13T18:18:00.748Z,30.00
2018-07-13T18:20:33.109Z,32.30
2018-07-13T18:23:05.564Z,33.80
2018-07-13T18:25:37.367Z,34.10
2018-07-13T18:28:10.307Z,34.30
2018-07-13T18:30:41.871Z,34.70
2018-07-13T18:33:13.788Z,34.60
2018-07-13T18:35:45.747Z,34.80
2018-07-13T18:38:18.390Z,34.70
2018-07-13T18:40:50.068Z,34.90
2018-07-13T18:43:22.465Z,35.40
2018-07-13T18:45:54.931Z,36.20
2018-07-13T18:48:26.587Z,36.50
2018-07-13T18:50:59.586Z,36.60
2018-07-13T18:53:31.247Z,36.30
2018-07-13T18:56:03.988Z,36.30
2018-07-13T18:58:35.246Z,36.00
2018-07-13T19:01:07.667Z,36.20
2018-07-13T19:03:39.451Z,36.20
2018-07-13T19:06:11.506Z,36.50
2018-07-13T19:08:43.347Z,36.40
2018-07-13T19:11:15.546Z,36.40
2018-07-13T19:13:48.366Z,36.30
2018-07-13T19:16:19.667Z,36.10
2018-07-13T19:18:51.288Z,36.00
2018-07-13T19:21:23.027Z,35.70
2018-07-13T19:23:54.667Z,35.60
2018-07-13T19:26:26.834Z,35.60
2018-07-13T19:28:58.708Z,35.50
2018-07-13T19:31:31.747Z,35.60
2018-07-13T19:34:03.607Z,35.70
2018-07-13T19:36:35.428Z,35.70
2018-07-13T19:39:07.708Z,35.70
2018-07-13T19:41:40.088Z,35.60
2018-07-13T19:44:12.907Z,35.70
2018-07-13T19:46:44.691Z,35.90
2018-07-13T19:49:16.871Z,36.00
2018-07-13T19:51:48.607Z,36.10
2018-07-13T19:54:21.447Z,36.20
2018-07-13T19:56:53.267Z,36.20
2018-07-13T19:59:25.367Z,36.30
2018-07-13T20:01:57.208Z,36.10
2018-07-13T20:04:29.288Z,35.90
2018-07-13T20:07:02.272Z,35.90
2018-07-13T20:09:33.747Z,35.90
2018-07-13T20:12:05.969Z,36.00
2018-07-13T20:14:37.748Z,36.00
2018-07-13T20:17:09.399Z,36.00
2018-07-13T20:19:40.688Z,36.00
2018-07-13T20:22:12.947Z,36.30
2018-07-13T20:24:44.747Z,36.60
2018-07-13T20:27:17.588Z,36.70
2018-07-13T20:29:49.127Z,36.70
2018-07-13T20:32:20.947Z,36.50
2018-07-13T20:34:53.406Z,36.70
2018-07-13T20:37:25.209Z,36.60
2018-07-13T20:39:58.287Z,36.80
2018-07-13T20:42:29.208Z,36.90
2018-07-13T20:45:01.779Z,37.00
2018-07-13T20:47:34.221Z,37.10
2018-07-13T20:50:05.906Z,37.30
2018-07-13T20:52:38.236Z,37.30
2018-07-13T20:55:09.766Z,37.40
2018-07-13T20:57:41.906Z,37.50
2018-07-13T21:00:13.627Z,38.30
2018-07-13T21:02:46.261Z,37.60
2018-07-13T21:05:19.827Z,38.20
2018-07-13T21:07:52.071Z,38.70
2018-07-13T21:10:23.947Z,39.50
2018-07-13T21:12:55.247Z,40.20
2018-07-13T21:15:27.247Z,40.30
2018-07-13T21:17:58.726Z,40.50
2018-07-13T21:20:31.207Z,40.80
2018-07-13T21:23:02.606Z,40.90
2018-07-13T21:25:34.691Z,40.90
2018-07-13T21:28:06.227Z,40.70
2018-07-13T21:30:39.146Z,40.80
2018-07-13T21:33:10.606Z,41.00
2018-07-13T21:35:43.071Z,41.50
2018-07-13T21:38:14.308Z,41.40
2018-07-13T21:40:46.348Z,41.90
2018-07-13T21:43:17.807Z,41.60
2018-07-13T21:45:49.806Z,41.80
2018-07-13T21:48:21.866Z,41.20
2018-07-13T21:50:54.707Z,41.50
2018-07-13T21:53:26.446Z,42.50
2018-07-13T21:55:59.207Z,42.60
2018-07-13T21:58:30.808Z,42.40
2018-07-13T22:01:02.728Z,42.50
2018-07-13T22:03:34.687Z,42.70
2018-07-13T22:06:07.006Z,42.50
2018-07-13T22:08:39.327Z,42.60
2018-07-13T22:11:11.227Z,42.90
2018-07-13T22:13:43.027Z,42.80
2018-07-13T22:16:15.049Z,42.90
2018-07-13T22:18:47.088Z,43.00
2018-07-13T22:21:18.955Z,43.00
2018-07-13T22:23:51.369Z,43.60
2018-07-13T22:26:24.350Z,43.30
2018-07-13T22:28:56.067Z,43.10
2018-07-13T22:31:28.626Z,43.10
2018-07-13T22:34:00.467Z,43.30
2018-07-13T22:36:32.307Z,43.20
2018-07-13T22:39:04.347Z,43.30
2018-07-13T22:41:36.187Z,43.50
2018-07-13T22:46:39.788Z,43.50
2018-07-13T22:49:12.107Z,43.70
2018-07-13T22:51:44.987Z,43.90
2018-07-13T22:54:16.166Z,44.50
2018-07-13T22:56:48.407Z,44.80
2018-07-13T22:59:19.588Z,44.70
2018-07-13T23:01:51.710Z,44.90
2018-07-13T23:04:22.967Z,45.30
2018-07-13T23:06:55.827Z,45.50
2018-07-13T23:09:28.387Z,45.70
2018-07-13T23:12:00.887Z,45.90
2018-07-13T23:14:32.627Z,45.90
2018-07-13T23:17:04.047Z,45.70
2018-07-13T23:19:36.387Z,45.90
2018-07-13T23:22:08.447Z,46.00
2018-07-13T23:24:40.787Z,46.20
2018-07-13T23:27:12.827Z,46.20
2018-07-13T23:29:45.047Z,46.60
2018-07-13T23:32:18.007Z,47.00
2018-07-13T23:34:50.088Z,47.10
2018-07-13T23:39:52.588Z,47.30
2018-07-13T23:42:25.167Z,47.40
2018-07-13T23:44:56.547Z,47.40
2018-07-13T23:47:28.706Z,47.40
2018-07-13T23:50:01.170Z,47.40
2018-07-13T23:52:33.266Z,47.50
2018-07-13T23:55:05.207Z,47.60
2018-07-13T23:57:37.186Z,47.40
